Time;durP1;ratioP1;P1;durP2;ratioP2;P2;SDS_P1;SDS_P2;PMS_P1;PMS_P2;Temp;Humidity;BMP_temperature;BMP_pressure;BME280_temperature;BME280_humidity;BME280_pressure;Samples;Min_cycle;Max_cycle;Signal;HPM_P1;HPM_P2
2022/01/14 00:01:30;;;;;;;12.35;9.73;;;;;;;;;;5032851;28;20479;-79
2022/01/14 00:03:56;;;;;;;11.00;9.45;;;;;;;;;;5031951;28;20095;-79
2022/01/14 00:06:21;;;;;;;10.68;8.75;;;;;;;;;;5011278;28;20049;-79
2022/01/14 00:08:47;;;;;;;10.55;9.13;;;;;;;;;;5012653;28;20038;-79
2022/01/14 00:11:17;;;;;;;10.25;8.27;;;;;;;;;;5011116;28;20037;-79
2022/01/14 00:16:08;;;;;;;12.93;9.45;;;;;;;;;;5031889;28;20048;-79
2022/01/14 00:18:33;;;;;;;12.10;8.48;;;;;;;;;;5032649;28;20112;-79
2022/01/14 00:21:02;;;;;;;9.32;8.30;;;;;;;;;;5032724;28;20095;-79
2022/01/14 00:23:32;;;;;;;11.82;9.25;;;;;;;;;;5032604;28;20036;-80
2022/01/14 00:31:48;;;;;;;9.95;8.55;;;;;;;;;;5018476;28;20037;-79
2022/01/14 00:34:14;;;;;;;10.05;8.77;;;;;;;;;;5019298;28;20108;-79
2022/01/14 00:36:40;;;;;;;10.85;8.77;;;;;;;;;;4999329;28;21635;-79
2022/01/14 00:39:07;;;;;;;10.70;9.63;;;;;;;;;;5032316;28;20112;-79
2022/01/14 00:41:36;;;;;;;9.85;8.68;;;;;;;;;;5032313;28;20082;-79
2022/01/14 00:44:05;;;;;;;10.05;8.10;;;;;;;;;;5016301;28;20057;-79
2022/01/14 00:46:30;;;;;;;9.13;7.90;;;;;;;;;;4999974;28;20515;-79
2022/01/14 00:48:56;;;;;;;11.30;8.57;;;;;;;;;;5015400;28;20037;-79
2022/01/14 00:51:22;;;;;;;11.32;9.02;;;;;;;;;;5015964;28;20061;-79
2022/01/14 00:53:47;;;;;;;9.50;8.40;;;;;;;;;;5015774;28;20370;-79
2022/01/14 00:56:25;;;;;;;11.43;8.30;;;;;;;;;;5031542;28;20091;-79
2022/01/14 01:01:38;;;;;;;10.90;7.90;;;;;;;;;;5031965;28;20061;-79
2022/01/14 01:04:04;;;;;;;9.88;8.88;;;;;;;;;;5014771;28;20122;-79
2022/01/14 01:06:29;;;;;;;11.38;8.13;;;;;;;;;;5031558;28;20038;-79
2022/01/14 01:08:55;;;;;;;11.05;8.30;;;;;;;;;;5031809;28;20450;-79
2022/01/14 01:11:26;;;;;;;10.95;7.95;;;;;;;;;;5031141;28;20029;-79
2022/01/14 01:14:01;;;;;;;9.02;7.53;;;;;;;;;;5047690;28;20057;-80
2022/01/14 01:16:27;;;;;;;8.13;7.18;;;;;;;;;;5015146;28;20535;-78
2022/01/14 01:18:52;;;;;;;10.93;8.15;;;;;;;;;;5011417;28;20044;-79
2022/01/14 01:21:18;;;;;;;10.40;7.97;;;;;;;;;;4995512;28;20036;-78
2022/01/14 01:23:43;;;;;;;10.32;8.43;;;;;;;;;;4995522;28;20034;-78
2022/01/14 01:26:15;;;;;;;10.02;7.68;;;;;;;;;;4996892;28;20095;-79
2022/01/14 01:28:56;;;;;;;11.20;8.82;;;;;;;;;;5000278;28;20048;-78
2022/01/14 01:31:38;;;;;;;9.38;7.82;;;;;;;;;;5002584;28;20044;-78
2022/01/14 01:34:09;;;;;;;9.57;7.90;;;;;;;;;;5039033;28;20088;-78
2022/01/14 01:36:34;;;;;;;9.90;7.60;;;;;;;;;;4995106;28;20136;-78
2022/01/14 01:39:00;;;;;;;9.32;8.10;;;;;;;;;;4995293;28;20044;-78
2022/01/14 01:41:25;;;;;;;12.02;8.63;;;;;;;;;;5015988;28;20030;-78
2022/01/14 01:43:53;;;;;;;9.77;7.78;;;;;;;;;;4996916;28;20038;-78
2022/01/14 01:46:20;;;;;;;7.95;7.15;;;;;;;;;;5030785;28;20076;-78
2022/01/14 01:48:46;;;;;;;11.45;8.20;;;;;;;;;;4994760;28;20768;-78
2022/01/14 01:51:12;;;;;;;11.57;8.13;;;;;;;;;;4995218;28;20029;-79
2022/01/14 01:53:38;;;;;;;10.45;8.23;;;;;;;;;;4978276;28;20037;-78
2022/01/14 01:56:04;;;;;;;10.13;8.05;;;;;;;;;;4994812;28;20500;-78
2022/01/14 01:58:29;;;;;;;9.02;7.50;;;;;;;;;;4994824;28;20046;-78
2022/01/14 02:00:54;;;;;;;10.43;8.40;;;;;;;;;;4994930;28;20046;-78
2022/01/14 02:03:21;;;;;;;10.68;8.43;;;;;;;;;;4982670;28;20025;-77
2022/01/14 02:05:46;;;;;;;9.40;7.38;;;;;;;;;;5030480;28;20033;-79
2022/01/14 02:08:12;;;;;;;10.48;8.50;;;;;;;;;;5014088;28;20163;-79
2022/01/14 02:10:39;;;;;;;9.50;7.88;;;;;;;;;;5014377;28;20039;-78
2022/01/14 02:13:05;;;;;;;8.80;7.72;;;;;;;;;;5030658;28;20120;-79
2022/01/14 02:23:22;;;;;;;9.35;7.55;;;;;;;;;;5030436;28;20372;-78
2022/01/14 02:25:48;;;;;;;9.43;7.30;;;;;;;;;;5014331;28;20439;-79
2022/01/14 02:28:15;;;;;;;9.80;7.55;;;;;;;;;;5030504;28;20120;-78
2022/01/14 02:30:41;;;;;;;9.23;7.00;;;;;;;;;;5014244;28;20033;-78
2022/01/14 02:33:11;;;;;;;8.40;7.05;;;;;;;;;;4996741;28;20028;-78
2022/01/14 02:35:37;;;;;;;8.95;7.13;;;;;;;;;;5029158;28;20034;-78
2022/01/14 02:38:03;;;;;;;8.75;6.82;;;;;;;;;;4993542;28;20030;-78
2022/01/14 02:40:29;;;;;;;7.97;6.88;;;;;;;;;;5027080;28;20118;-78
2022/01/14 02:42:58;;;;;;;10.02;7.35;;;;;;;;;;5027022;28;20038;-78
2022/01/14 02:45:28;;;;;;;8.68;7.50;;;;;;;;;;4995394;28;20041;-78
2022/01/14 02:47:53;;;;;;;8.13;6.80;;;;;;;;;;4983002;28;20040;-78
2022/01/14 02:50:21;;;;;;;9.38;7.13;;;;;;;;;;5010294;28;20057;-78
2022/01/14 02:55:26;;;;;;;8.98;7.45;;;;;;;;;;4979389;28;20022;-78
2022/01/14 02:57:53;;;;;;;10.75;7.47;;;;;;;;;;4979632;28;20110;-78
2022/01/14 03:00:20;;;;;;;8.23;7.00;;;;;;;;;;4978395;28;20022;-78
2022/01/14 03:02:47;;;;;;;10.32;7.45;;;;;;;;;;4997354;28;20038;-78
2022/01/14 03:05:14;;;;;;;9.57;7.07;;;;;;;;;;5029742;28;20057;-79
2022/01/14 03:07:40;;;;;;;10.35;7.32;;;;;;;;;;5013286;28;20386;-78
2022/01/14 03:10:06;;;;;;;10.07;6.82;;;;;;;;;;5030247;28;20091;-78
2022/01/14 03:12:31;;;;;;;8.32;6.90;;;;;;;;;;5026440;28;20044;-79
2022/01/14 03:14:57;;;;;;;8.23;7.15;;;;;;;;;;4977645;28;20033;-78
2022/01/14 03:17:22;;;;;;;9.27;7.03;;;;;;;;;;4995900;28;20515;-78
2022/01/14 03:19:48;;;;;;;8.77;7.00;;;;;;;;;;5013958;28;20080;-79
2022/01/14 03:22:29;;;;;;;8.20;7.20;;;;;;;;;;5013208;28;20038;-78
2022/01/14 03:27:20;;;;;;;8.00;6.95;;;;;;;;;;5029575;28;20114;-78
2022/01/14 03:29:46;;;;;;;7.38;6.50;;;;;;;;;;5013926;28;20068;-78
2022/01/14 03:32:12;;;;;;;8.70;6.70;;;;;;;;;;5029706;28;20049;-78
2022/01/14 03:34:37;;;;;;;8.20;6.88;;;;;;;;;;5016108;28;20492;-78
2022/01/14 03:37:03;;;;;;;7.43;6.40;;;;;;;;;;5026208;28;20034;-78
2022/01/14 03:39:29;;;;;;;8.82;6.82;;;;;;;;;;5010496;28;20030;-78
2022/01/14 03:41:54;;;;;;;8.73;6.80;;;;;;;;;;5018473;28;20049;-78
2022/01/14 03:44:20;;;;;;;9.57;7.00;;;;;;;;;;5010280;28;20037;-78
2022/01/14 03:46:45;;;;;;;8.82;6.53;;;;;;;;;;4977680;28;20099;-78
2022/01/14 03:49:11;;;;;;;9.00;7.47;;;;;;;;;;5006985;28;20083;-78
2022/01/14 03:51:36;;;;;;;9.20;7.68;;;;;;;;;;5031543;28;20025;-78
2022/01/14 03:54:02;;;;;;;7.88;7.07;;;;;;;;;;5033319;28;20033;-78
2022/01/14 03:56:27;;;;;;;8.10;6.82;;;;;;;;;;5032941;28;20111;-78
2022/01/14 03:58:53;;;;;;;7.90;6.93;;;;;;;;;;5000695;28;20025;-78
2022/01/14 04:01:19;;;;;;;7.88;6.55;;;;;;;;;;5016980;28;20040;-78
2022/01/14 04:03:46;;;;;;;8.90;6.97;;;;;;;;;;5032702;28;20055;-78
2022/01/14 04:06:11;;;;;;;9.07;6.63;;;;;;;;;;4999818;28;20029;-79
2022/01/14 04:08:37;;;;;;;10.00;7.50;;;;;;;;;;5016351;28;20037;-78
2022/01/14 04:11:03;;;;;;;8.60;7.13;;;;;;;;;;5016324;28;20033;-78
2022/01/14 04:13:42;;;;;;;10.18;7.85;;;;;;;;;;5016817;28;20045;-78
2022/01/14 04:16:08;;;;;;;9.60;7.13;;;;;;;;;;5001825;28;20056;-79
2022/01/14 04:18:33;;;;;;;9.23;7.22;;;;;;;;;;5016399;28;20483;-78
2022/01/14 04:20:59;;;;;;;9.68;7.75;;;;;;;;;;5016100;28;20056;-78
2022/01/14 04:23:24;;;;;;;9.15;7.20;;;;;;;;;;5032946;28;20049;-78
2022/01/14 04:25:52;;;;;;;8.45;6.80;;;;;;;;;;5016060;28;20034;-78
2022/01/14 04:28:18;;;;;;;10.43;8.80;;;;;;;;;;5016063;28;20037;-78
2022/01/14 04:30:44;;;;;;;8.88;7.03;;;;;;;;;;5016295;28;20037;-78
2022/01/14 04:33:09;;;;;;;8.25;6.85;;;;;;;;;;4999338;28;20056;-78
2022/01/14 04:35:35;;;;;;;8.65;7.18;;;;;;;;;;4999651;28;20043;-79
2022/01/14 04:38:00;;;;;;;7.78;6.72;;;;;;;;;;5016159;28;20033;-78
2022/01/14 04:40:26;;;;;;;10.27;7.85;;;;;;;;;;4983667;28;20033;-78
2022/01/14 04:42:55;;;;;;;9.63;7.22;;;;;;;;;;5015313;28;20057;-78
2022/01/14 04:48:02;;;;;;;9.98;7.57;;;;;;;;;;5031163;28;20025;-78
2022/01/14 04:50:28;;;;;;;10.05;7.22;;;;;;;;;;4999435;28;20097;-78
2022/01/14 04:52:53;;;;;;;9.45;7.25;;;;;;;;;;4999162;28;20034;-78
2022/01/14 04:55:21;;;;;;;9.07;7.00;;;;;;;;;;5032200;28;20029;-78
2022/01/14 04:57:47;;;;;;;7.53;6.63;;;;;;;;;;4995559;28;20030;-78
2022/01/14 05:00:18;;;;;;;8.10;6.28;;;;;;;;;;4996047;28;20095;-78
2022/01/14 05:02:43;;;;;;;7.93;6.70;;;;;;;;;;4978294;28;20049;-78
2022/01/14 05:05:09;;;;;;;8.25;7.30;;;;;;;;;;5012003;28;20033;-78
2022/01/14 05:07:35;;;;;;;9.23;6.57;;;;;;;;;;5056826;28;20095;-78
2022/01/14 05:12:30;;;;;;;8.88;6.65;;;;;;;;;;5048427;28;20061;-78
2022/01/14 05:14:55;;;;;;;8.32;6.25;;;;;;;;;;5032108;28;20049;-78
2022/01/14 05:17:20;;;;;;;8.73;6.57;;;;;;;;;;5014342;28;20035;-78
2022/01/14 05:19:46;;;;;;;8.05;6.55;;;;;;;;;;5031586;28;20041;-78
2022/01/14 05:22:11;;;;;;;8.73;7.03;;;;;;;;;;5014604;28;20029;-78
2022/01/14 05:24:37;;;;;;;8.25;6.72;;;;;;;;;;4998617;28;20025;-78
2022/01/14 05:27:02;;;;;;;8.20;7.00;;;;;;;;;;5015333;28;20505;-78
2022/01/14 05:29:28;;;;;;;7.80;6.20;;;;;;;;;;4999042;28;20069;-78
2022/01/14 05:32:02;;;;;;;7.20;5.75;;;;;;;;;;5014713;28;20033;-78
2022/01/14 05:34:28;;;;;;;7.90;6.07;;;;;;;;;;5015960;28;20044;-79
2022/01/14 05:36:53;;;;;;;6.88;6.00;;;;;;;;;;5014599;28;20033;-78
2022/01/14 05:39:23;;;;;;;7.55;6.18;;;;;;;;;;5010971;28;20499;-78
2022/01/14 05:41:49;;;;;;;8.30;6.35;;;;;;;;;;5008031;28;20116;-78
2022/01/14 05:44:14;;;;;;;8.52;6.15;;;;;;;;;;5030584;28;20108;-78
2022/01/14 05:46:39;;;;;;;7.32;6.13;;;;;;;;;;5029987;28;20042;-79
2022/01/14 05:49:05;;;;;;;7.72;5.82;;;;;;;;;;4998486;28;20037;-80
2022/01/14 05:51:30;;;;;;;7.70;6.47;;;;;;;;;;5014655;28;20037;-80
2022/01/14 05:53:56;;;;;;;8.15;6.40;;;;;;;;;;5014805;28;20072;-79
2022/01/14 05:56:22;;;;;;;8.25;6.32;;;;;;;;;;5013776;28;20025;-79
2022/01/14 05:58:47;;;;;;;8.93;6.72;;;;;;;;;;5014706;28;20125;-79
2022/01/14 06:01:13;;;;;;;9.82;6.25;;;;;;;;;;4998078;28;20033;-78
2022/01/14 06:03:38;;;;;;;7.90;6.53;;;;;;;;;;5030713;28;20037;-78
2022/01/14 06:06:03;;;;;;;8.32;6.40;;;;;;;;;;5014024;28;20040;-78
2022/01/14 06:08:29;;;;;;;8.18;5.97;;;;;;;;;;5014013;28;20060;-80
2022/01/14 06:10:54;;;;;;;6.95;6.00;;;;;;;;;;5011157;28;20408;-81
2022/01/14 06:13:20;;;;;;;7.30;5.95;;;;;;;;;;4977830;28;20496;-80
2022/01/14 06:15:45;;;;;;;7.55;6.05;;;;;;;;;;5009143;28;20067;-80
2022/01/14 06:18:11;;;;;;;7.60;6.38;;;;;;;;;;5019135;28;20095;-81
2022/01/14 06:20:36;;;;;;;9.52;6.65;;;;;;;;;;5010836;28;20034;-81
2022/01/14 06:23:02;;;;;;;9.43;6.45;;;;;;;;;;4994456;28;20465;-81
2022/01/14 06:25:27;;;;;;;13.43;8.07;;;;;;;;;;4994139;28;20033;-81
2022/01/14 06:27:53;;;;;;;13.43;8.05;;;;;;;;;;5010802;28;20048;-82
2022/01/14 06:30:18;;;;;;;16.13;7.18;;;;;;;;;;5013345;28;20060;-82
2022/01/14 06:32:44;;;;;;;13.80;7.75;;;;;;;;;;5029747;28;20025;-82
2022/01/14 06:35:10;;;;;;;16.95;10.00;;;;;;;;;;5010076;28;20073;-82
2022/01/14 06:37:36;;;;;;;18.67;14.65;;;;;;;;;;4978483;28;20033;-82
2022/01/14 06:40:01;;;;;;;23.85;16.80;;;;;;;;;;4962627;28;20041;-83
2022/01/14 06:42:27;;;;;;;25.52;18.73;;;;;;;;;;5010271;28;20026;-82
2022/01/14 06:44:53;;;;;;;26.48;19.73;;;;;;;;;;4997197;28;20513;-82
2022/01/14 06:47:18;;;;;;;24.42;18.98;;;;;;;;;;5013053;28;20037;-82
2022/01/14 06:49:44;;;;;;;25.27;17.38;;;;;;;;;;5011858;28;20744;-82
2022/01/14 06:52:09;;;;;;;24.02;18.35;;;;;;;;;;4993887;28;20411;-83
2022/01/14 06:54:35;;;;;;;20.33;18.15;;;;;;;;;;5012065;28;20055;-83
2022/01/14 06:57:00;;;;;;;24.58;17.92;;;;;;;;;;5011914;28;20029;-81
2022/01/14 06:59:26;;;;;;;23.50;16.90;;;;;;;;;;4995965;28;20052;-81
2022/01/14 07:01:53;;;;;;;26.50;17.65;;;;;;;;;;5012658;28;20056;-82
2022/01/14 07:04:18;;;;;;;23.10;18.33;;;;;;;;;;4997077;28;20391;-82
2022/01/14 07:06:44;;;;;;;21.95;16.42;;;;;;;;;;4997257;28;20021;-82
2022/01/14 07:09:09;;;;;;;19.85;16.40;;;;;;;;;;4996897;28;20065;-83
2022/01/14 07:11:36;;;;;;;18.60;15.10;;;;;;;;;;5008162;28;20041;-81
2022/01/14 07:14:03;;;;;;;19.63;15.45;;;;;;;;;;5013738;28;20041;-79
2022/01/14 07:16:29;;;;;;;21.95;15.75;;;;;;;;;;5046389;28;20032;-79
2022/01/14 07:18:54;;;;;;;22.80;14.65;;;;;;;;;;5026385;28;20046;-81
2022/01/14 07:21:20;;;;;;;22.65;15.38;;;;;;;;;;4994270;28;20038;-80
2022/01/14 07:23:46;;;;;;;21.73;14.95;;;;;;;;;;4994004;28;20053;-80
2022/01/14 07:26:12;;;;;;;21.90;14.20;;;;;;;;;;4980834;28;20034;-80
2022/01/14 07:28:37;;;;;;;21.52;14.93;;;;;;;;;;4981439;28;20165;-79
2022/01/14 07:31:03;;;;;;;23.42;13.90;;;;;;;;;;4981578;28;20037;-80
2022/01/14 07:33:28;;;;;;;18.55;14.48;;;;;;;;;;5006635;28;20091;-80
2022/01/14 07:35:53;;;;;;;19.75;13.55;;;;;;;;;;4997575;28;20103;-80
2022/01/14 07:38:19;;;;;;;21.52;13.52;;;;;;;;;;4997411;28;20029;-80
2022/01/14 07:40:44;;;;;;;18.77;13.00;;;;;;;;;;5026302;28;20447;-80
2022/01/14 07:43:10;;;;;;;21.05;14.25;;;;;;;;;;5003730;28;20033;-80
2022/01/14 07:45:35;;;;;;;16.35;12.13;;;;;;;;;;5031208;28;20115;-80
2022/01/14 07:48:01;;;;;;;15.70;12.57;;;;;;;;;;5033192;28;20044;-80
2022/01/14 07:50:26;;;;;;;14.73;11.95;;;;;;;;;;5016927;28;20116;-80
2022/01/14 07:52:51;;;;;;;14.75;12.15;;;;;;;;;;5033118;28;20025;-80
2022/01/14 07:55:17;;;;;;;15.57;12.32;;;;;;;;;;5031240;28;20068;-80
2022/01/14 07:57:42;;;;;;;18.10;12.32;;;;;;;;;;5015513;28;20356;-80
2022/01/14 08:00:08;;;;;;;16.83;12.05;;;;;;;;;;5015345;28;20399;-80
2022/01/14 08:02:34;;;;;;;14.80;11.05;;;;;;;;;;5015343;28;20064;-80
2022/01/14 08:05:00;;;;;;;15.75;12.05;;;;;;;;;;5000291;28;20033;-80
2022/01/14 08:07:28;;;;;;;14.13;11.85;;;;;;;;;;5015831;28;20423;-81
2022/01/14 08:09:53;;;;;;;15.98;11.95;;;;;;;;;;5000672;28;20036;-80
2022/01/14 08:12:19;;;;;;;15.98;11.27;;;;;;;;;;5032974;28;20120;-80
2022/01/14 08:14:44;;;;;;;16.55;10.90;;;;;;;;;;5049383;28;20084;-80
2022/01/14 08:17:12;;;;;;;16.85;12.80;;;;;;;;;;5014003;28;20033;-80
2022/01/14 08:19:37;;;;;;;17.23;11.60;;;;;;;;;;5013098;28;20407;-80
2022/01/14 08:22:04;;;;;;;17.38;11.07;;;;;;;;;;4999503;28;20042;-80
2022/01/14 08:24:29;;;;;;;18.85;11.90;;;;;;;;;;5035068;28;20476;-79
2022/01/14 08:26:56;;;;;;;15.27;10.93;;;;;;;;;;5037327;28;20125;-79
2022/01/14 08:29:21;;;;;;;19.13;11.63;;;;;;;;;;5042762;28;20087;-79
2022/01/14 08:31:47;;;;;;;16.80;10.93;;;;;;;;;;5018862;28;20479;-79
2022/01/14 08:34:12;;;;;;;19.02;11.15;;;;;;;;;;5019492;28;20430;-79
2022/01/14 08:36:37;;;;;;;16.42;10.38;;;;;;;;;;4998289;28;20064;-79
2022/01/14 08:39:03;;;;;;;15.77;11.52;;;;;;;;;;4998237;28;20431;-79
2022/01/14 08:41:30;;;;;;;14.38;10.00;;;;;;;;;;5004030;28;20034;-79
2022/01/14 08:43:58;;;;;;;13.65;10.40;;;;;;;;;;4996717;28;20030;-79
2022/01/14 08:46:25;;;;;;;12.77;10.05;;;;;;;;;;4992358;28;20041;-79
2022/01/14 08:48:51;;;;;;;16.48;9.45;;;;;;;;;;5014264;28;20124;-78
2022/01/14 08:51:17;;;;;;;14.73;9.25;;;;;;;;;;4998829;28;20093;-79
2022/01/14 08:53:43;;;;;;;15.23;9.35;;;;;;;;;;5013241;28;20025;-80
2022/01/14 08:56:08;;;;;;;12.00;8.85;;;;;;;;;;5014297;28;20415;-79
2022/01/14 08:58:34;;;;;;;13.57;10.07;;;;;;;;;;4997388;28;20091;-79
2022/01/14 09:00:59;;;;;;;11.48;8.50;;;;;;;;;;5046156;28;20033;-79
2022/01/14 09:03:25;;;;;;;12.35;8.93;;;;;;;;;;5014017;28;20044;-79
2022/01/14 09:05:50;;;;;;;12.98;8.50;;;;;;;;;;5045563;28;20045;-79
2022/01/14 09:08:16;;;;;;;12.10;9.27;;;;;;;;;;5029388;28;20030;-79
2022/01/14 09:10:41;;;;;;;13.65;8.27;;;;;;;;;;5043255;28;20033;-79
2022/01/14 09:13:07;;;;;;;10.80;8.75;;;;;;;;;;5013395;28;20069;-79
2022/01/14 09:15:33;;;;;;;13.63;9.45;;;;;;;;;;5029028;28;20041;-79
2022/01/14 09:17:58;;;;;;;13.90;9.93;;;;;;;;;;5014527;28;20060;-78
2022/01/14 09:20:24;;;;;;;13.82;10.25;;;;;;;;;;5047443;28;20114;-79
2022/01/14 09:22:51;;;;;;;11.80;9.25;;;;;;;;;;5032287;28;20052;-79
2022/01/14 09:25:20;;;;;;;12.55;9.27;;;;;;;;;;5026200;28;20033;-79
2022/01/14 09:27:47;;;;;;;11.15;8.75;;;;;;;;;;4997232;28;20061;-78
2022/01/14 09:30:12;;;;;;;13.52;9.75;;;;;;;;;;5015305;28;20041;-79
2022/01/14 09:32:38;;;;;;;12.02;9.35;;;;;;;;;;4981399;28;20424;-79
2022/01/14 09:35:06;;;;;;;13.40;9.23;;;;;;;;;;5030328;28;20124;-78
2022/01/14 09:37:31;;;;;;;11.70;8.43;;;;;;;;;;5009601;28;20065;-78
2022/01/14 09:39:57;;;;;;;9.05;7.38;;;;;;;;;;4989754;28;20490;-78
2022/01/14 09:42:22;;;;;;;10.32;8.00;;;;;;;;;;5025102;28;20033;-79
2022/01/14 09:44:48;;;;;;;9.45;7.75;;;;;;;;;;5014177;28;20042;-79
2022/01/14 09:47:17;;;;;;;9.75;7.57;;;;;;;;;;5012996;28;20029;-80
2022/01/14 09:49:44;;;;;;;11.57;8.48;;;;;;;;;;5014405;28;20125;-78
2022/01/14 09:52:11;;;;;;;9.65;6.72;;;;;;;;;;5030224;28;20040;-79
2022/01/14 09:54:37;;;;;;;9.23;8.20;;;;;;;;;;5026330;28;20038;-79
2022/01/14 09:57:03;;;;;;;12.20;7.65;;;;;;;;;;5016900;28;20070;-78
2022/01/14 09:59:28;;;;;;;9.73;7.53;;;;;;;;;;5047494;28;20060;-78
2022/01/14 10:01:54;;;;;;;8.82;6.93;;;;;;;;;;5047144;28;20029;-78
2022/01/14 10:04:21;;;;;;;9.32;7.55;;;;;;;;;;4978464;28;20033;-79
2022/01/14 10:06:51;;;;;;;7.47;6.35;;;;;;;;;;5026302;28;20029;-78
2022/01/14 10:09:37;;;;;;;8.23;6.13;;;;;;;;;;5028536;28;20487;-79
2022/01/14 10:12:20;;;;;;;8.77;7.07;;;;;;;;;;5061453;28;20042;-79
2022/01/14 10:15:00;;;;;;;10.40;6.97;;;;;;;;;;5014813;28;20468;-78
2022/01/14 10:17:26;;;;;;;10.75;7.57;;;;;;;;;;5044606;28;20034;-79
2022/01/14 10:19:51;;;;;;;9.93;7.63;;;;;;;;;;5046851;28;20045;-78
2022/01/14 10:22:27;;;;;;;10.93;6.80;;;;;;;;;;5012950;28;20029;-79
2022/01/14 10:24:58;;;;;;;9.80;6.72;;;;;;;;;;5045431;28;20033;-79
2022/01/14 10:27:45;;;;;;;8.60;6.65;;;;;;;;;;5025124;28;20378;-79
2022/01/14 10:30:14;;;;;;;9.15;7.35;;;;;;;;;;5064445;28;20086;-79
2022/01/14 10:32:40;;;;;;;9.27;7.45;;;;;;;;;;4997624;28;20033;-79
2022/01/14 10:35:12;;;;;;;13.40;8.85;;;;;;;;;;5013468;28;20483;-79
2022/01/14 10:37:37;;;;;;;10.37;8.50;;;;;;;;;;5010451;28;20034;-79
2022/01/14 10:40:13;;;;;;;11.40;7.70;;;;;;;;;;4977863;28;20372;-79
2022/01/14 10:42:39;;;;;;;11.02;9.23;;;;;;;;;;4995832;28;20030;-79
2022/01/14 10:45:18;;;;;;;17.77;8.73;;;;;;;;;;5007769;28;20026;-79
2022/01/14 10:48:06;;;;;;;12.38;8.05;;;;;;;;;;5046517;28;20038;-79
2022/01/14 10:50:43;;;;;;;9.52;8.15;;;;;;;;;;5028637;28;20128;-79
2022/01/14 10:53:21;;;;;;;12.32;7.97;;;;;;;;;;5047425;28;20037;-79
2022/01/14 10:55:51;;;;;;;10.88;8.35;;;;;;;;;;5013812;28;20044;-79
2022/01/14 10:58:22;;;;;;;12.50;7.68;;;;;;;;;;5030031;28;20498;-79
2022/01/14 11:00:50;;;;;;;9.70;7.85;;;;;;;;;;5051687;28;20502;-78
2022/01/14 11:03:30;;;;;;;9.55;7.03;;;;;;;;;;5017190;28;20057;-79
2022/01/14 11:06:13;;;;;;;9.95;7.90;;;;;;;;;;5020045;28;20079;-79
2022/01/14 11:08:39;;;;;;;10.27;7.05;;;;;;;;;;5031741;28;20033;-79
2022/01/14 11:11:04;;;;;;;11.43;7.30;;;;;;;;;;5033839;28;20605;-79
2022/01/14 11:13:30;;;;;;;8.60;7.10;;;;;;;;;;5017452;28;20041;-79
2022/01/14 11:15:55;;;;;;;10.90;7.57;;;;;;;;;;5017730;28;20038;-78
2022/01/14 11:18:21;;;;;;;10.32;7.10;;;;;;;;;;5017321;28;20115;-78
2022/01/14 11:23:30;;;;;;;10.32;7.43;;;;;;;;;;5033198;28;20048;-78
2022/01/14 11:26:07;;;;;;;10.23;7.35;;;;;;;;;;5000162;28;20391;-78
2022/01/14 11:28:38;;;;;;;9.10;7.28;;;;;;;;;;5017437;28;20040;-79
2022/01/14 11:31:30;;;;;;;10.25;6.88;;;;;;;;;;5017377;28;20045;-79
2022/01/14 11:33:59;;;;;;;9.07;6.70;;;;;;;;;;5011976;28;20102;-78
2022/01/14 11:36:25;;;;;;;8.50;7.07;;;;;;;;;;5017773;28;20502;-78
2022/01/14 11:38:51;;;;;;;10.00;7.43;;;;;;;;;;5033417;28;20447;-79
2022/01/14 11:41:20;;;;;;;10.32;6.65;;;;;;;;;;5050067;28;20084;-78
2022/01/14 11:43:48;;;;;;;8.77;7.43;;;;;;;;;;5024090;28;20052;-78
2022/01/14 11:46:16;;;;;;;9.93;7.35;;;;;;;;;;5029909;28;20430;-78
2022/01/14 11:48:49;;;;;;;8.98;7.13;;;;;;;;;;5013245;28;20523;-78
2022/01/14 11:51:15;;;;;;;;;;;;;;;;;;5033485;28;20049;-78
2022/01/14 11:53:46;;;;;;;10.02;7.18;;;;;;;;;;5032907;28;19917;-78
2022/01/14 11:56:29;;;;;;;9.75;6.95;;;;;;;;;;5016563;28;20033;-79
2022/01/14 11:59:17;;;;;;;11.60;7.32;;;;;;;;;;5033148;28;20391;-78
2022/01/14 12:02:04;;;;;;;9.27;6.55;;;;;;;;;;5047378;28;20071;-78
2022/01/14 12:05:00;;;;;;;11.50;8.45;;;;;;;;;;5046155;28;20029;-78
2022/01/14 12:07:26;;;;;;;12.00;8.15;;;;;;;;;;5049676;28;20025;-78
2022/01/14 12:09:59;;;;;;;10.30;8.10;;;;;;;;;;5032967;28;20082;-79
2022/01/14 12:12:30;;;;;;;11.88;7.75;;;;;;;;;;5045202;28;20128;-78
2022/01/14 12:14:58;;;;;;;12.35;7.85;;;;;;;;;;5049065;28;20454;-79
2022/01/14 12:17:33;;;;;;;11.73;7.00;;;;;;;;;;5032244;28;20037;-79
2022/01/14 12:20:08;;;;;;;10.52;7.50;;;;;;;;;;5032462;28;20033;-78
2022/01/14 12:22:34;;;;;;;27.90;11.85;;;;;;;;;;5032331;28;20037;-79
2022/01/14 12:25:00;;;;;;;31.52;15.13;;;;;;;;;;4998978;28;20039;-79
2022/01/14 12:27:26;;;;;;;22.77;11.20;;;;;;;;;;5048862;28;20030;-79
2022/01/14 12:30:06;;;;;;;16.63;9.85;;;;;;;;;;5016103;28;20029;-79
2022/01/14 12:32:33;;;;;;;16.50;9.75;;;;;;;;;;5015785;28;20029;-79
2022/01/14 12:35:00;;;;;;;18.35;10.05;;;;;;;;;;5032240;28;20053;-78
2022/01/14 12:37:33;;;;;;;15.88;9.45;;;;;;;;;;5016117;28;20045;-79
2022/01/14 12:40:20;;;;;;;18.45;9.55;;;;;;;;;;5049284;28;20041;-79
2022/01/14 12:42:51;;;;;;;18.02;9.48;;;;;;;;;;5037249;28;20042;-79
2022/01/14 12:45:52;;;;;;;18.23;9.48;;;;;;;;;;5031459;28;20030;-78
2022/01/14 12:48:32;;;;;;;16.48;8.05;;;;;;;;;;5025191;28;20163;-79
2022/01/14 12:51:08;;;;;;;13.23;7.72;;;;;;;;;;5003708;28;20045;-79
2022/01/14 12:53:34;;;;;;;14.70;8.38;;;;;;;;;;4979923;28;20431;-77
2022/01/14 12:56:12;;;;;;;14.32;8.20;;;;;;;;;;4992383;28;20029;-78
2022/01/14 12:59:15;;;;;;;19.98;8.25;;;;;;;;;;5013904;28;20079;-78
2022/01/14 13:01:42;;;;;;;17.55;8.18;;;;;;;;;;4972956;28;20039;-78
2022/01/14 13:04:11;;;;;;;16.30;8.75;;;;;;;;;;4973546;28;20122;-78
2022/01/14 13:06:53;;;;;;;13.18;7.80;;;;;;;;;;5030161;28;20029;-79
2022/01/14 13:09:23;;;;;;;15.10;7.38;;;;;;;;;;5030708;28;20056;-78
2022/01/14 13:12:06;;;;;;;13.05;7.40;;;;;;;;;;4995475;28;20403;-79
2022/01/14 13:14:43;;;;;;;14.40;7.88;;;;;;;;;;4981510;28;20034;-79
2022/01/14 13:17:15;;;;;;;14.07;7.18;;;;;;;;;;4979425;28;20038;-78
2022/01/14 13:19:41;;;;;;;13.93;8.35;;;;;;;;;;4996732;28;20080;-79
2022/01/14 13:22:09;;;;;;;11.15;6.47;;;;;;;;;;5004028;28;20368;-78
2022/01/14 13:24:37;;;;;;;13.95;7.07;;;;;;;;;;4998182;28;20025;-78
2022/01/14 13:27:14;;;;;;;13.65;7.22;;;;;;;;;;5019513;28;20020;-79
2022/01/14 13:29:41;;;;;;;13.13;7.40;;;;;;;;;;5050816;28;20024;-79
2022/01/14 13:32:06;;;;;;;13.30;7.35;;;;;;;;;;5067389;28;20033;-79
2022/01/14 13:34:32;;;;;;;12.02;6.30;;;;;;;;;;5022988;28;20084;-78
2022/01/14 13:36:57;;;;;;;11.38;6.20;;;;;;;;;;4995566;28;20033;-78
2022/01/14 13:39:23;;;;;;;10.68;6.15;;;;;;;;;;4995300;28;20022;-78
2022/01/14 13:41:48;;;;;;;14.73;6.32;;;;;;;;;;4995738;28;20038;-79
2022/01/14 13:44:20;;;;;;;10.35;6.20;;;;;;;;;;5011572;28;20106;-78
2022/01/14 13:46:54;;;;;;;11.40;6.60;;;;;;;;;;4984591;28;20515;-78
2022/01/14 13:49:22;;;;;;;11.20;5.38;;;;;;;;;;5030759;28;20091;-79
2022/01/14 13:52:12;;;;;;;11.70;6.63;;;;;;;;;;5047580;28;20040;-79
2022/01/14 13:54:39;;;;;;;8.10;5.35;;;;;;;;;;5013729;28;20434;-80
2022/01/14 13:57:12;;;;;;;9.82;5.38;;;;;;;;;;5047854;28;20030;-78
2022/01/14 13:59:37;;;;;;;11.45;6.28;;;;;;;;;;5047307;28;20030;-79
2022/01/14 14:02:06;;;;;;;9.48;6.15;;;;;;;;;;5047286;28;20391;-79
2022/01/14 14:04:34;;;;;;;10.30;5.82;;;;;;;;;;5025753;28;20048;-79
2022/01/14 14:07:09;;;;;;;10.15;5.13;;;;;;;;;;4994745;28;20033;-78
2022/01/14 14:09:52;;;;;;;9.90;5.80;;;;;;;;;;4993888;28;20479;-78
2022/01/14 14:18:07;;;;;;;11.57;5.82;;;;;;;;;;5029901;28;20030;-78
2022/01/14 14:20:33;;;;;;;14.30;5.57;;;;;;;;;;5014571;28;20080;-78
2022/01/14 14:23:23;;;;;;;12.10;5.15;;;;;;;;;;4996787;28;20386;-78
2022/01/14 14:25:59;;;;;;;12.35;5.32;;;;;;;;;;5013488;28;20018;-78
2022/01/14 14:28:28;;;;;;;11.90;5.65;;;;;;;;;;4997104;28;20033;-78
2022/01/14 14:30:53;;;;;;;14.18;5.95;;;;;;;;;;4997777;28;20368;-78
2022/01/14 14:33:20;;;;;;;9.70;4.97;;;;;;;;;;4981517;28;20075;-78
2022/01/14 14:35:46;;;;;;;10.57;5.07;;;;;;;;;;4996853;28;20030;-78
2022/01/14 14:38:16;;;;;;;12.95;5.25;;;;;;;;;;4998116;28;20171;-78
2022/01/14 14:40:42;;;;;;;10.98;4.72;;;;;;;;;;4998934;28;20471;-78
2022/01/14 14:43:08;;;;;;;10.40;4.43;;;;;;;;;;5014008;28;20032;-78
2022/01/14 14:45:34;;;;;;;12.77;5.28;;;;;;;;;;5013993;28;20384;-78
2022/01/14 14:47:59;;;;;;;10.10;4.55;;;;;;;;;;5013845;28;20084;-78
2022/01/14 14:50:27;;;;;;;9.68;4.60;;;;;;;;;;4981672;28;20106;-78
2022/01/14 14:52:52;;;;;;;11.52;4.40;;;;;;;;;;4981793;28;20079;-78
2022/01/14 14:55:22;;;;;;;9.35;5.00;;;;;;;;;;4997600;28;20026;-78
2022/01/14 14:57:48;;;;;;;6.95;4.50;;;;;;;;;;5014067;28;20112;-78
2022/01/14 15:00:20;;;;;;;9.98;4.30;;;;;;;;;;5013172;28;20124;-78
2022/01/14 15:02:45;;;;;;;19.40;5.80;;;;;;;;;;5044448;28;20052;-79
2022/01/14 15:05:11;;;;;;;8.43;4.05;;;;;;;;;;5002238;28;20104;-78
2022/01/14 15:07:37;;;;;;;11.43;4.20;;;;;;;;;;5014476;28;20083;-78
2022/01/14 15:10:03;;;;;;;9.82;4.88;;;;;;;;;;5020734;28;20506;-79
2022/01/14 15:12:29;;;;;;;11.00;5.13;;;;;;;;;;5024677;28;20048;-79
2022/01/14 15:15:04;;;;;;;15.15;4.93;;;;;;;;;;5002189;28;20034;-78
2022/01/14 15:20:15;;;;;;;7.38;3.92;;;;;;;;;;5026882;28;20040;-79